Time;durP1;ratioP1;P1;durP2;ratioP2;P2;SDS_P1;SDS_P2;PMS_P1;PMS_P2;Temp;Humidity;BMP_temperature;BMP_pressure;BME280_temperature;BME280_humidity;BME280_pressure;Samples;Min_cycle;Max_cycle;Signal;HPM_P1;HPM_P2
2020/12/05 00:02:20;;;;;;;24.48;13.52;;;;;;;;;;5051568;28;20388;-84
2020/12/05 00:04:46;;;;;;;25.35;13.15;;;;;;;;;;5052695;28;20040;-77
2020/12/05 00:07:12;;;;;;;25.60;14.07;;;;;;;;;;5052693;28;20441;-85
2020/12/05 00:09:39;;;;;;;22.83;13.48;;;;;;;;;;5052676;28;20024;-79
2020/12/05 00:12:05;;;;;;;26.67;15.15;;;;;;;;;;5053014;28;20021;-78
2020/12/05 00:14:32;;;;;;;25.95;15.05;;;;;;;;;;5050133;28;20389;-87
2020/12/05 00:16:58;;;;;;;25.88;14.25;;;;;;;;;;5053152;28;20075;-73
2020/12/05 00:19:24;;;;;;;26.63;13.52;;;;;;;;;;5052526;28;20030;-80
2020/12/05 00:21:51;;;;;;;27.33;14.52;;;;;;;;;;5052507;28;20021;-82
2020/12/05 00:24:17;;;;;;;28.17;14.73;;;;;;;;;;5052610;28;20040;-84
2020/12/05 00:26:43;;;;;;;26.50;14.68;;;;;;;;;;5052587;28;20028;-84
2020/12/05 00:29:09;;;;;;;30.08;14.60;;;;;;;;;;5052591;28;20052;-85
2020/12/05 00:31:35;;;;;;;26.83;14.43;;;;;;;;;;5052474;28;20025;-87
2020/12/05 00:34:01;;;;;;;28.45;14.07;;;;;;;;;;5052835;28;20024;-86
2020/12/05 00:36:27;;;;;;;26.45;14.15;;;;;;;;;;5052471;28;20028;-84
2020/12/05 00:38:54;;;;;;;23.45;13.50;;;;;;;;;;5052357;28;20079;-87
2020/12/05 00:41:20;;;;;;;25.40;14.00;;;;;;;;;;5052420;28;20469;-87
2020/12/05 00:43:46;;;;;;;29.48;15.00;;;;;;;;;;5052364;28;20494;-86
2020/12/05 00:46:12;;;;;;;25.20;13.35;;;;;;;;;;5052362;28;20021;-83
2020/12/05 00:48:38;;;;;;;28.70;14.05;;;;;;;;;;5052262;28;20033;-78
2020/12/05 00:51:04;;;;;;;28.40;15.88;;;;;;;;;;5052470;28;20049;-87
2020/12/05 00:53:30;;;;;;;25.75;14.73;;;;;;;;;;5052537;28;20048;-88
2020/12/05 00:55:56;;;;;;;28.13;15.85;;;;;;;;;;5052491;28;20029;-87
2020/12/05 00:58:22;;;;;;;27.63;14.40;;;;;;;;;;5052257;28;20048;-86
2020/12/05 01:00:48;;;;;;;27.25;14.13;;;;;;;;;;5052296;28;20116;-86
2020/12/05 01:03:15;;;;;;;31.05;15.68;;;;;;;;;;5052597;28;20093;-85
2020/12/05 01:05:41;;;;;;;29.15;14.48;;;;;;;;;;5052292;28;20036;-81
2020/12/05 01:08:07;;;;;;;27.02;14.27;;;;;;;;;;5052465;28;20070;-87
2020/12/05 01:10:33;;;;;;;27.08;14.38;;;;;;;;;;5052291;28;20046;-79
2020/12/05 01:13:04;;;;;;;26.15;14.10;;;;;;;;;;5052400;28;20021;-86
2020/12/05 01:15:30;;;;;;;26.10;13.88;;;;;;;;;;5052398;28;20025;-87
2020/12/05 01:17:56;;;;;;;26.45;14.25;;;;;;;;;;5052119;28;20485;-83
2020/12/05 01:20:22;;;;;;;27.45;14.73;;;;;;;;;;5054121;28;20381;-88
2020/12/05 01:22:49;;;;;;;27.27;13.50;;;;;;;;;;5056264;28;20477;-86
2020/12/05 01:25:15;;;;;;;26.00;13.68;;;;;;;;;;5056296;28;20480;-86
2020/12/05 01:27:43;;;;;;;26.05;14.02;;;;;;;;;;5056077;28;20021;-87
2020/12/05 01:30:10;;;;;;;26.15;13.15;;;;;;;;;;5055920;28;20029;-85
2020/12/05 01:32:36;;;;;;;21.58;11.43;;;;;;;;;;5055905;28;20021;-86
2020/12/05 01:35:02;;;;;;;21.13;11.00;;;;;;;;;;5056397;28;20108;-88
2020/12/05 01:37:28;;;;;;;20.80;11.95;;;;;;;;;;5056119;28;20021;-87
2020/12/05 01:39:54;;;;;;;20.58;11.30;;;;;;;;;;5056166;28;20516;-87
2020/12/05 01:42:20;;;;;;;21.35;12.50;;;;;;;;;;5055880;28;20070;-84
2020/12/05 01:44:46;;;;;;;27.33;13.30;;;;;;;;;;5055924;28;20044;-84
2020/12/05 01:47:13;;;;;;;20.95;11.65;;;;;;;;;;5055930;28;20024;-88
2020/12/05 01:49:39;;;;;;;20.70;11.05;;;;;;;;;;5055787;28;20028;-90
2020/12/05 01:52:06;;;;;;;20.15;10.88;;;;;;;;;;5055689;28;20159;-88
2020/12/05 01:54:33;;;;;;;20.58;11.55;;;;;;;;;;5055858;28;20061;-76
2020/12/05 01:57:00;;;;;;;20.15;11.88;;;;;;;;;;5055931;28;20021;-89
2020/12/05 01:59:26;;;;;;;23.23;12.15;;;;;;;;;;5055776;28;20045;-89
2020/12/05 02:01:53;;;;;;;20.95;11.55;;;;;;;;;;5055801;28;20028;-77
2020/12/05 02:04:19;;;;;;;23.30;11.40;;;;;;;;;;5055385;28;20072;-89
2020/12/05 02:06:56;;;;;;;23.40;12.07;;;;;;;;;;5055746;28;20021;-85
2020/12/05 02:09:26;;;;;;;23.05;12.48;;;;;;;;;;5055609;28;20021;-89
2020/12/05 02:11:57;;;;;;;23.80;12.82;;;;;;;;;;5055535;28;20012;-86
2020/12/05 02:14:26;;;;;;;24.27;12.25;;;;;;;;;;5055423;28;20021;-89
2020/12/05 02:16:53;;;;;;;24.38;13.50;;;;;;;;;;5055401;28;20033;-89
2020/12/05 02:19:21;;;;;;;26.27;13.60;;;;;;;;;;5055522;28;20020;-90
2020/12/05 02:21:48;;;;;;;32.45;14.75;;;;;;;;;;5055488;28;20021;-89
2020/12/05 02:24:14;;;;;;;24.40;12.77;;;;;;;;;;5064751;28;20037;-84
2020/12/05 02:26:42;;;;;;;25.98;13.65;;;;;;;;;;5075371;28;20024;-87
2020/12/05 02:29:10;;;;;;;25.85;12.82;;;;;;;;;;5075351;28;20029;-88
2020/12/05 02:31:37;;;;;;;28.33;13.32;;;;;;;;;;5074978;28;20024;-87
2020/12/05 02:34:03;;;;;;;25.40;13.60;;;;;;;;;;5074348;28;20025;-87
2020/12/05 02:36:30;;;;;;;23.58;13.77;;;;;;;;;;5075198;28;20017;-88
2020/12/05 02:39:09;;;;;;;25.50;13.50;;;;;;;;;;5075038;28;20039;-79
2020/12/05 02:41:38;;;;;;;25.80;13.27;;;;;;;;;;5074893;28;20031;-88
2020/12/05 02:44:04;;;;;;;24.63;13.60;;;;;;;;;;5074888;28;20047;-87
2020/12/05 02:46:30;;;;;;;26.30;13.18;;;;;;;;;;5075046;28;20074;-88
2020/12/05 02:48:56;;;;;;;24.00;12.57;;;;;;;;;;5074543;28;20024;-87
2020/12/05 02:51:23;;;;;;;25.83;12.77;;;;;;;;;;5073432;28;20036;-87
2020/12/05 02:53:49;;;;;;;24.85;13.40;;;;;;;;;;5074476;28;20017;-86
2020/12/05 02:56:16;;;;;;;26.48;13.50;;;;;;;;;;5074500;28;20028;-80
2020/12/05 02:58:42;;;;;;;24.63;12.77;;;;;;;;;;5074295;28;20040;-87
2020/12/05 03:01:08;;;;;;;26.52;13.75;;;;;;;;;;5074299;28;20025;-81
2020/12/05 03:03:34;;;;;;;27.15;13.65;;;;;;;;;;5074043;28;20388;-85
2020/12/05 03:06:00;;;;;;;27.33;14.32;;;;;;;;;;5074082;28;20110;-85
2020/12/05 03:08:26;;;;;;;25.30;13.52;;;;;;;;;;5070634;28;20050;-86
2020/12/05 03:10:52;;;;;;;26.30;12.43;;;;;;;;;;5053906;28;20038;-85
2020/12/05 03:13:18;;;;;;;24.60;12.02;;;;;;;;;;5053828;28;20020;-86
2020/12/05 03:15:44;;;;;;;24.40;13.00;;;;;;;;;;5055173;28;20029;-83
2020/12/05 03:18:10;;;;;;;25.88;13.25;;;;;;;;;;5073622;28;20025;-85
2020/12/05 03:20:36;;;;;;;25.33;12.90;;;;;;;;;;5073538;28;20024;-85
2020/12/05 03:23:02;;;;;;;24.50;12.10;;;;;;;;;;5056948;28;20389;-84
2020/12/05 03:25:28;;;;;;;20.10;10.98;;;;;;;;;;5054158;28;20112;-82
2020/12/05 03:27:55;;;;;;;24.02;12.70;;;;;;;;;;5053657;28;20470;-84
2020/12/05 03:30:21;;;;;;;24.60;14.05;;;;;;;;;;5053549;28;20033;-84
2020/12/05 03:32:47;;;;;;;21.20;12.07;;;;;;;;;;5053629;28;20385;-85
2020/12/05 03:35:14;;;;;;;20.20;12.07;;;;;;;;;;5053484;28;20021;-84
2020/12/05 03:37:40;;;;;;;23.63;12.48;;;;;;;;;;5053422;28;20489;-83
2020/12/05 03:40:07;;;;;;;21.30;11.30;;;;;;;;;;5053318;28;20495;-81
2020/12/05 03:42:33;;;;;;;23.52;12.38;;;;;;;;;;5051407;28;20025;-83
2020/12/05 03:44:59;;;;;;;22.10;12.13;;;;;;;;;;5053262;28;20036;-83
2020/12/05 03:47:25;;;;;;;23.00;12.77;;;;;;;;;;5053204;28;20032;-84
2020/12/05 03:49:51;;;;;;;22.95;12.02;;;;;;;;;;5053184;28;20452;-85
2020/12/05 03:52:17;;;;;;;21.90;11.82;;;;;;;;;;5053066;28;20350;-82
2020/12/05 03:54:43;;;;;;;24.33;12.63;;;;;;;;;;5053123;28;20025;-85
2020/12/05 03:57:09;;;;;;;24.83;12.13;;;;;;;;;;5053085;28;20028;-83
2020/12/05 03:59:35;;;;;;;27.42;12.23;;;;;;;;;;5052790;28;20052;-72
2020/12/05 04:02:01;;;;;;;23.20;11.95;;;;;;;;;;5053100;28;20477;-71
2020/12/05 04:04:27;;;;;;;20.90;11.45;;;;;;;;;;5052637;28;20072;-82
2020/12/05 04:06:53;;;;;;;23.20;12.88;;;;;;;;;;5053116;28;20017;-83
2020/12/05 04:09:20;;;;;;;23.98;12.30;;;;;;;;;;5052761;28;20099;-83
2020/12/05 04:11:46;;;;;;;23.25;12.32;;;;;;;;;;5052890;28;20013;-84
2020/12/05 04:14:12;;;;;;;21.65;12.63;;;;;;;;;;5053102;28;20028;-82
2020/12/05 04:16:38;;;;;;;22.40;11.45;;;;;;;;;;5052628;28;20052;-83
2020/12/05 04:19:04;;;;;;;25.00;12.77;;;;;;;;;;5052633;28;20473;-82
2020/12/05 04:21:31;;;;;;;25.58;13.07;;;;;;;;;;5052935;28;20021;-83
2020/12/05 04:23:57;;;;;;;24.77;12.63;;;;;;;;;;5052480;28;20079;-85
2020/12/05 04:26:23;;;;;;;26.50;13.90;;;;;;;;;;5052575;28;20021;-82
2020/12/05 04:28:49;;;;;;;27.33;12.90;;;;;;;;;;5052450;28;20227;-83
2020/12/05 04:31:15;;;;;;;24.85;13.05;;;;;;;;;;5052542;28;20039;-85
2020/12/05 04:33:42;;;;;;;26.42;12.20;;;;;;;;;;5052428;28;20103;-73
2020/12/05 04:36:08;;;;;;;23.83;13.45;;;;;;;;;;5052406;28;20028;-85
2020/12/05 04:38:34;;;;;;;26.25;14.07;;;;;;;;;;5052253;28;20527;-81
2020/12/05 04:41:01;;;;;;;30.33;14.52;;;;;;;;;;5052024;28;20052;-79
2020/12/05 04:43:27;;;;;;;27.30;14.27;;;;;;;;;;5052239;28;20025;-75
2020/12/05 04:45:54;;;;;;;28.15;14.10;;;;;;;;;;5052532;28;20075;-82
2020/12/05 04:48:20;;;;;;;33.03;14.35;;;;;;;;;;5052151;28;20481;-86
2020/12/05 04:50:47;;;;;;;28.73;13.80;;;;;;;;;;5052400;28;20036;-86
2020/12/05 04:53:17;;;;;;;30.08;14.57;;;;;;;;;;5053315;28;20471;-87
2020/12/05 04:55:44;;;;;;;29.35;14.63;;;;;;;;;;5056496;28;20025;-84
2020/12/05 04:58:20;;;;;;;27.70;14.18;;;;;;;;;;5071341;28;20024;-86
2020/12/05 05:00:47;;;;;;;33.08;15.25;;;;;;;;;;5076420;28;20119;-80
2020/12/05 05:03:14;;;;;;;30.20;15.35;;;;;;;;;;5076275;28;20024;-76
2020/12/05 05:05:41;;;;;;;29.92;14.73;;;;;;;;;;5076562;28;20094;-71
2020/12/05 05:08:07;;;;;;;31.48;15.85;;;;;;;;;;5076451;28;20021;-78
2020/12/05 05:10:35;;;;;;;29.48;15.75;;;;;;;;;;5076264;28;20082;-86
2020/12/05 05:13:19;;;;;;;30.02;14.90;;;;;;;;;;5075878;28;20465;-74
2020/12/05 05:15:45;;;;;;;29.10;15.23;;;;;;;;;;5076146;28;20400;-81
2020/12/05 05:18:12;;;;;;;27.98;14.52;;;;;;;;;;5075984;28;20029;-87
2020/12/05 05:20:42;;;;;;;26.98;14.88;;;;;;;;;;5076085;28;20021;-84
2020/12/05 05:23:09;;;;;;;27.73;14.70;;;;;;;;;;5074740;28;20032;-87
2020/12/05 05:25:47;;;;;;;31.60;15.48;;;;;;;;;;5076172;28;20028;-74
2020/12/05 05:28:17;;;;;;;31.38;16.15;;;;;;;;;;5076139;28;20024;-78
2020/12/05 05:31:19;;;;;;;30.38;15.48;;;;;;;;;;5076065;28;20013;-87
2020/12/05 05:33:45;;;;;;;29.70;14.63;;;;;;;;;;5076198;28;20111;-81
2020/12/05 05:36:19;;;;;;;28.17;14.50;;;;;;;;;;5076030;28;20024;-87
2020/12/05 05:38:56;;;;;;;31.52;15.05;;;;;;;;;;5074407;28;20052;-86
2020/12/05 05:41:22;;;;;;;33.10;17.00;;;;;;;;;;5056095;28;20096;-72
2020/12/05 05:43:55;;;;;;;30.45;15.68;;;;;;;;;;5055883;28;20037;-82
2020/12/05 05:46:27;;;;;;;27.07;15.00;;;;;;;;;;5055913;28;20017;-86
2020/12/05 05:48:53;;;;;;;30.55;14.50;;;;;;;;;;5055705;28;20025;-85
2020/12/05 05:51:35;;;;;;;26.90;13.80;;;;;;;;;;5055696;28;20028;-85
2020/12/05 05:54:11;;;;;;;27.67;14.38;;;;;;;;;;5055997;28;20028;-88
2020/12/05 05:56:37;;;;;;;27.75;13.63;;;;;;;;;;5055570;28;20099;-77
2020/12/05 05:59:04;;;;;;;31.05;14.38;;;;;;;;;;5074875;28;20052;-88
2020/12/05 06:01:32;;;;;;;29.83;14.77;;;;;;;;;;5075754;28;20021;-87
2020/12/05 06:04:03;;;;;;;31.83;15.90;;;;;;;;;;5075403;28;20044;-83
2020/12/05 06:06:32;;;;;;;27.65;14.88;;;;;;;;;;5074755;28;20025;-71
2020/12/05 06:09:01;;;;;;;26.60;14.77;;;;;;;;;;5074283;28;20036;-81
2020/12/05 06:11:27;;;;;;;28.80;14.35;;;;;;;;;;5070535;28;20033;-84
2020/12/05 06:13:53;;;;;;;24.05;13.30;;;;;;;;;;5053470;28;20032;-83
2020/12/05 06:16:19;;;;;;;26.08;13.65;;;;;;;;;;5052687;28;20056;-87
2020/12/05 06:18:47;;;;;;;30.33;16.30;;;;;;;;;;5052330;28;20021;-84
2020/12/05 06:21:13;;;;;;;33.60;18.38;;;;;;;;;;5051943;28;20061;-79
2020/12/05 06:23:41;;;;;;;31.27;17.98;;;;;;;;;;5051613;28;20039;-76
2020/12/05 06:26:12;;;;;;;30.48;16.17;;;;;;;;;;5052028;28;20033;-83
2020/12/05 06:28:39;;;;;;;25.58;14.18;;;;;;;;;;5052281;28;20473;-82
2020/12/05 06:31:05;;;;;;;29.90;15.98;;;;;;;;;;5052367;28;20029;-84
2020/12/05 06:33:33;;;;;;;30.45;14.35;;;;;;;;;;5052714;28;20155;-78
2020/12/05 06:35:59;;;;;;;26.83;13.02;;;;;;;;;;5051043;28;20033;-78
2020/12/05 06:38:25;;;;;;;26.45;15.20;;;;;;;;;;5051944;28;20032;-77
2020/12/05 06:40:51;;;;;;;33.70;17.02;;;;;;;;;;5051827;28;20040;-84
2020/12/05 06:43:17;;;;;;;31.58;15.48;;;;;;;;;;5051921;28;20020;-78
2020/12/05 06:45:44;;;;;;;35.25;17.33;;;;;;;;;;5050764;28;20029;-84
2020/12/05 06:48:10;;;;;;;31.60;17.20;;;;;;;;;;5051667;28;20032;-85
2020/12/05 06:50:40;;;;;;;32.75;17.48;;;;;;;;;;5050359;28;20033;-83
2020/12/05 06:53:21;;;;;;;36.13;18.90;;;;;;;;;;5051509;28;20048;-80
2020/12/05 06:55:48;;;;;;;31.42;16.40;;;;;;;;;;5051643;28;20119;-83
2020/12/05 06:58:14;;;;;;;31.70;17.17;;;;;;;;;;5051795;28;20021;-77
2020/12/05 07:00:41;;;;;;;33.65;16.70;;;;;;;;;;5051233;28;20052;-75
2020/12/05 07:03:11;;;;;;;37.70;17.63;;;;;;;;;;5051551;28;20021;-76
2020/12/05 07:05:44;;;;;;;34.50;17.65;;;;;;;;;;5051002;28;20036;-82
2020/12/05 07:08:20;;;;;;;39.30;18.20;;;;;;;;;;5051101;28;20032;-76
2020/12/05 07:10:54;;;;;;;36.33;17.80;;;;;;;;;;5051357;28;20112;-82
2020/12/05 07:13:22;;;;;;;37.03;17.65;;;;;;;;;;5050669;28;20523;-81
2020/12/05 07:15:48;;;;;;;32.88;16.63;;;;;;;;;;5050853;28;20040;-83
2020/12/05 07:18:19;;;;;;;34.20;16.10;;;;;;;;;;5049196;28;20515;-73
2020/12/05 07:20:45;;;;;;;35.30;19.55;;;;;;;;;;5051419;28;20111;-83
2020/12/05 07:23:12;;;;;;;34.05;17.88;;;;;;;;;;5050852;28;20393;-82
2020/12/05 07:25:38;;;;;;;33.97;17.65;;;;;;;;;;5050738;28;20469;-82
2020/12/05 07:28:04;;;;;;;38.13;18.80;;;;;;;;;;5050933;28;20033;-77
2020/12/05 07:30:30;;;;;;;36.38;19.88;;;;;;;;;;5050836;28;20021;-82
2020/12/05 07:32:56;;;;;;;32.35;16.60;;;;;;;;;;5049629;28;20028;-82
2020/12/05 07:35:22;;;;;;;36.22;16.40;;;;;;;;;;5050387;28;20036;-76
2020/12/05 07:37:48;;;;;;;30.52;15.77;;;;;;;;;;5050642;28;20043;-76
2020/12/05 07:40:14;;;;;;;33.45;16.98;;;;;;;;;;5050692;28;20029;-81
2020/12/05 07:42:41;;;;;;;38.60;19.10;;;;;;;;;;5050165;28;20025;-80
2020/12/05 07:45:07;;;;;;;36.00;18.88;;;;;;;;;;5050503;28;20036;-84
2020/12/05 07:47:34;;;;;;;46.30;22.17;;;;;;;;;;5049991;28;20018;-79
2020/12/05 07:50:01;;;;;;;42.80;20.65;;;;;;;;;;5049195;28;20033;-85
2020/12/05 07:52:28;;;;;;;39.15;19.90;;;;;;;;;;5051795;28;20369;-74
2020/12/05 07:54:57;;;;;;;29.77;13.70;;;;;;;;;;5050939;28;20067;-76
2020/12/05 07:57:24;;;;;;;20.77;11.27;;;;;;;;;;5051235;28;20384;-81
2020/12/05 07:59:51;;;;;;;22.98;11.80;;;;;;;;;;5050524;28;20041;-86
2020/12/05 08:02:27;;;;;;;19.65;9.52;;;;;;;;;;5052407;28;20025;-86
2020/12/05 08:04:56;;;;;;;19.15;10.30;;;;;;;;;;5052653;28;20037;-83
2020/12/05 08:07:37;;;;;;;19.42;10.35;;;;;;;;;;5052600;28;20045;-82
2020/12/05 08:10:08;;;;;;;19.73;9.57;;;;;;;;;;5053154;28;20024;-84
2020/12/05 08:12:53;;;;;;;17.35;9.35;;;;;;;;;;5052917;28;20568;-85
2020/12/05 08:15:20;;;;;;;20.45;10.18;;;;;;;;;;5053002;28;20033;-87
2020/12/05 08:17:46;;;;;;;19.50;11.00;;;;;;;;;;5053244;28;20055;-87
2020/12/05 08:20:12;;;;;;;18.45;10.32;;;;;;;;;;5052895;28;20119;-87
2020/12/05 08:22:38;;;;;;;21.95;11.02;;;;;;;;;;5052839;28;20427;-84
2020/12/05 08:25:05;;;;;;;21.55;10.98;;;;;;;;;;5052900;28;20534;-85
2020/12/05 08:27:32;;;;;;;22.83;10.32;;;;;;;;;;5052723;28;20642;-87
2020/12/05 08:29:58;;;;;;;21.65;10.85;;;;;;;;;;5053029;28;20025;-84
2020/12/05 08:32:25;;;;;;;20.08;10.48;;;;;;;;;;5052667;28;20389;-84
2020/12/05 08:35:01;;;;;;;18.70;10.60;;;;;;;;;;5052720;28;20028;-87
2020/12/05 08:37:27;;;;;;;21.55;11.25;;;;;;;;;;5052906;28;20013;-86
2020/12/05 08:39:54;;;;;;;23.48;11.15;;;;;;;;;;5052729;28;20021;-86
2020/12/05 08:42:20;;;;;;;22.50;11.90;;;;;;;;;;5052628;28;20017;-88
2020/12/05 08:44:47;;;;;;;24.15;13.02;;;;;;;;;;5052582;28;20510;-73
2020/12/05 08:47:13;;;;;;;26.88;13.30;;;;;;;;;;5052497;28;20031;-87
2020/12/05 08:49:44;;;;;;;22.10;12.98;;;;;;;;;;5052736;28;20040;-87
2020/12/05 08:52:11;;;;;;;23.13;12.77;;;;;;;;;;5051483;28;20067;-86
2020/12/05 08:54:49;;;;;;;21.88;12.23;;;;;;;;;;5052638;28;20036;-76
2020/12/05 08:57:15;;;;;;;21.33;12.25;;;;;;;;;;5058122;28;20020;-74
2020/12/05 08:59:42;;;;;;;24.83;13.35;;;;;;;;;;5072650;28;20079;-82
2020/12/05 09:02:09;;;;;;;24.33;12.30;;;;;;;;;;5036460;28;20739;-88
2020/12/05 09:04:36;;;;;;;23.58;12.85;;;;;;;;;;5029905;28;20128;-84
2020/12/05 09:07:12;;;;;;;37.90;18.02;;;;;;;;;;5031118;28;20018;-90
2020/12/05 09:09:39;;;;;;;25.52;14.43;;;;;;;;;;5031097;28;20034;-90
2020/12/05 09:12:12;;;;;;;27.83;15.10;;;;;;;;;;5030600;28;20053;-85
2020/12/05 09:14:39;;;;;;;24.13;12.00;;;;;;;;;;5029215;28;20036;-74
2020/12/05 09:17:20;;;;;;;24.95;12.80;;;;;;;;;;5029147;28;20057;-79
2020/12/05 09:19:46;;;;;;;27.00;14.30;;;;;;;;;;5030104;28;20029;-86
2020/12/05 09:22:27;;;;;;;28.48;14.35;;;;;;;;;;5030413;28;20029;-86
2020/12/05 09:24:53;;;;;;;222.57;29.70;;;;;;;;;;5028492;28;20037;-86
2020/12/05 09:27:19;;;;;;;41.72;17.65;;;;;;;;;;5029297;28;20120;-81
2020/12/05 09:29:45;;;;;;;40.42;17.38;;;;;;;;;;5030026;28;20053;-76
2020/12/05 09:32:11;;;;;;;25.55;13.77;;;;;;;;;;5031512;28;20025;-87
2020/12/05 09:34:37;;;;;;;33.05;14.88;;;;;;;;;;5029620;28;20029;-75
2020/12/05 09:37:11;;;;;;;27.63;14.40;;;;;;;;;;5028924;28;20026;-82
2020/12/05 09:39:37;;;;;;;27.15;14.00;;;;;;;;;;5030363;28;20099;-88
2020/12/05 09:42:03;;;;;;;25.90;12.57;;;;;;;;;;5039976;28;20429;-83
2020/12/05 09:44:29;;;;;;;29.80;14.88;;;;;;;;;;5034995;28;20084;-82
2020/12/05 09:46:55;;;;;;;29.45;15.23;;;;;;;;;;5036925;28;20067;-80
2020/12/05 09:49:21;;;;;;;25.67;13.93;;;;;;;;;;5034066;28;20087;-85
2020/12/05 09:51:47;;;;;;;28.63;14.52;;;;;;;;;;5034034;28;20017;-86
2020/12/05 09:54:13;;;;;;;30.80;15.82;;;;;;;;;;5033269;28;20014;-75
2020/12/05 09:56:39;;;;;;;25.80;13.75;;;;;;;;;;5032274;28;20393;-86
2020/12/05 09:59:05;;;;;;;25.60;14.15;;;;;;;;;;5034608;28;20485;-76
2020/12/05 10:01:31;;;;;;;26.55;14.10;;;;;;;;;;5045311;28;20064;-77
2020/12/05 10:03:57;;;;;;;26.27;13.50;;;;;;;;;;5059060;28;20033;-91
2020/12/05 10:06:23;;;;;;;21.77;12.95;;;;;;;;;;5054042;28;20044;-83
2020/12/05 10:08:49;;;;;;;26.52;14.07;;;;;;;;;;5054172;28;20056;-84
2020/12/05 10:11:16;;;;;;;25.23;13.43;;;;;;;;;;5053484;28;20025;-78
2020/12/05 10:13:42;;;;;;;24.50;13.32;;;;;;;;;;5038927;28;20459;-85
2020/12/05 10:16:08;;;;;;;25.83;13.40;;;;;;;;;;5034591;28;20469;-82
2020/12/05 10:18:34;;;;;;;26.88;15.45;;;;;;;;;;5054083;28;20492;-76
2020/12/05 10:21:00;;;;;;;31.48;16.67;;;;;;;;;;5055271;28;20052;-89
2020/12/05 10:23:26;;;;;;;43.60;20.58;;;;;;;;;;5056601;28;20029;-75
2020/12/05 10:25:52;;;;;;;36.17;18.55;;;;;;;;;;5052997;28;20082;-78
2020/12/05 10:28:18;;;;;;;20.08;11.10;;;;;;;;;;5052352;28;20074;-81
2020/12/05 10:30:44;;;;;;;19.65;10.25;;;;;;;;;;5034891;28;20028;-81
2020/12/05 10:33:10;;;;;;;19.42;10.68;;;;;;;;;;5036849;28;20021;-93
2020/12/05 10:35:36;;;;;;;19.05;10.25;;;;;;;;;;5036947;28;20021;-84
2020/12/05 10:38:02;;;;;;;16.48;8.40;;;;;;;;;;5034937;28;20032;-77
2020/12/05 10:40:28;;;;;;;17.55;9.68;;;;;;;;;;5036196;28;20420;-79
2020/12/05 10:42:54;;;;;;;20.15;10.55;;;;;;;;;;5040086;28;20481;-89
2020/12/05 10:45:21;;;;;;;18.27;9.63;;;;;;;;;;5037404;28;20037;-91
2020/12/05 10:47:47;;;;;;;18.73;10.88;;;;;;;;;;5041426;28;20028;-81
2020/12/05 10:50:13;;;;;;;16.80;10.00;;;;;;;;;;5036822;28;20038;-92
2020/12/05 10:52:39;;;;;;;16.52;9.55;;;;;;;;;;5041463;28;20025;-92
2020/12/05 10:55:05;;;;;;;17.42;9.68;;;;;;;;;;5032620;28;20028;-91
2020/12/05 10:57:31;;;;;;;15.15;9.05;;;;;;;;;;5035031;28;20033;-89
2020/12/05 10:59:58;;;;;;;17.73;9.48;;;;;;;;;;5035178;28;20042;-81
2020/12/05 11:02:24;;;;;;;20.48;11.05;;;;;;;;;;5037388;28;20025;-91
2020/12/05 11:04:50;;;;;;;18.35;10.77;;;;;;;;;;5048414;28;20397;-78
2020/12/05 11:07:16;;;;;;;16.70;9.70;;;;;;;;;;5047256;28;20141;-88
2020/12/05 11:09:42;;;;;;;24.83;10.70;;;;;;;;;;5047529;28;20103;-82
2020/12/05 11:12:08;;;;;;;20.63;10.20;;;;;;;;;;5052235;28;20036;-86
2020/12/05 11:14:34;;;;;;;20.00;9.60;;;;;;;;;;5053314;28;20017;-90
2020/12/05 11:17:00;;;;;;;21.08;9.05;;;;;;;;;;5054094;28;20024;-85
2020/12/05 11:19:26;;;;;;;25.50;9.60;;;;;;;;;;5057918;28;20040;-78
2020/12/05 11:21:52;;;;;;;33.03;9.73;;;;;;;;;;5055628;28;20013;-87
2020/12/05 11:24:19;;;;;;;16.65;8.95;;;;;;;;;;5062430;28;20044;-91
2020/12/05 11:26:47;;;;;;;19.48;8.50;;;;;;;;;;5057516;28;20464;-88
2020/12/05 11:29:13;;;;;;;16.35;8.82;;;;;;;;;;5059540;28;20024;-81
2020/12/05 11:31:39;;;;;;;20.40;10.55;;;;;;;;;;5059968;28;20055;-93
2020/12/05 11:34:05;;;;;;;18.17;9.95;;;;;;;;;;5063413;28;20017;-77
2020/12/05 11:36:31;;;;;;;17.83;9.70;;;;;;;;;;5061467;28;20024;-73
2020/12/05 11:38:57;;;;;;;16.48;9.13;;;;;;;;;;5063119;28;20032;-92
2020/12/05 11:41:23;;;;;;;15.55;9.13;;;;;;;;;;5066705;28;20029;-84
2020/12/05 11:43:49;;;;;;;14.05;8.40;;;;;;;;;;5068788;28;20036;-93
2020/12/05 11:46:15;;;;;;;15.48;8.55;;;;;;;;;;5062990;28;20061;-73
2020/12/05 11:48:41;;;;;;;14.05;8.23;;;;;;;;;;5066105;28;20021;-94
2020/12/05 11:51:07;;;;;;;13.73;8.40;;;;;;;;;;5062623;28;20025;-76
2020/12/05 11:53:33;;;;;;;15.75;8.13;;;;;;;;;;5067163;28;20025;-91
2020/12/05 11:56:02;;;;;;;13.02;7.68;;;;;;;;;;5063375;28;20115;-92
2020/12/05 11:58:28;;;;;;;13.82;7.65;;;;;;;;;;5063402;28;20017;-85
2020/12/05 12:00:54;;;;;;;14.55;8.27;;;;;;;;;;5065719;28;20073;-93
2020/12/05 12:03:20;;;;;;;12.13;7.13;;;;;;;;;;5061462;28;20036;-93
2020/12/05 12:05:46;;;;;;;14.23;8.20;;;;;;;;;;5059027;28;20028;-89
2020/12/05 12:08:12;;;;;;;13.98;7.50;;;;;;;;;;5063543;28;20021;-78
2020/12/05 12:10:38;;;;;;;15.60;8.85;;;;;;;;;;5066989;28;20021;-89
2020/12/05 12:13:04;;;;;;;13.05;8.48;;;;;;;;;;5070060;28;20025;-88
2020/12/05 12:15:30;;;;;;;13.63;7.90;;;;;;;;;;5064388;28;20056;-79
2020/12/05 12:17:56;;;;;;;14.68;8.23;;;;;;;;;;5060833;28;20032;-88
2020/12/05 12:20:22;;;;;;;14.63;8.45;;;;;;;;;;5061457;28;20060;-73
2020/12/05 12:22:48;;;;;;;13.63;8.15;;;;;;;;;;5062646;28;20021;-90
2020/12/05 12:25:14;;;;;;;16.42;9.43;;;;;;;;;;5064278;28;20025;-93
2020/12/05 12:27:40;;;;;;;37.08;18.95;;;;;;;;;;5062918;28;20017;-91
2020/12/05 12:30:06;;;;;;;33.55;16.75;;;;;;;;;;5065935;28;20004;-83
2020/12/05 12:32:32;;;;;;;18.58;9.52;;;;;;;;;;5057255;28;20064;-93
2020/12/05 12:34:58;;;;;;;26.58;13.80;;;;;;;;;;5055527;28;20022;-86
2020/12/05 12:37:24;;;;;;;18.95;11.65;;;;;;;;;;5036911;28;20047;-91
2020/12/05 12:39:50;;;;;;;14.32;8.50;;;;;;;;;;5041670;28;20029;-84
2020/12/05 12:42:16;;;;;;;15.57;8.50;;;;;;;;;;5080281;28;20039;-78
2020/12/05 12:44:42;;;;;;;16.17;8.10;;;;;;;;;;5078262;28;20105;-80
2020/12/05 12:47:25;;;;;;;14.60;7.85;;;;;;;;;;5083077;28;20021;-89
2020/12/05 12:49:51;;;;;;;16.20;8.95;;;;;;;;;;5070754;28;20024;-80
2020/12/05 12:52:17;;;;;;;13.57;8.18;;;;;;;;;;5058239;28;20025;-78
2020/12/05 12:54:43;;;;;;;15.05;8.55;;;;;;;;;;5054381;28;20266;-81
2020/12/05 12:57:09;;;;;;;15.68;8.52;;;;;;;;;;5053589;28;20024;-81
2020/12/05 12:59:35;;;;;;;14.07;7.80;;;;;;;;;;5051170;28;20877;-74
2020/12/05 13:02:02;;;;;;;14.02;8.45;;;;;;;;;;5050161;28;20025;-88
2020/12/05 13:04:28;;;;;;;16.50;9.23;;;;;;;;;;5050864;28;20488;-82
2020/12/05 13:06:54;;;;;;;14.27;8.38;;;;;;;;;;5051252;28;20029;-92
2020/12/05 13:09:20;;;;;;;17.30;9.30;;;;;;;;;;5050104;28;20194;-83
2020/12/05 13:11:47;;;;;;;16.83;9.20;;;;;;;;;;5051578;28;20408;-78
2020/12/05 13:14:13;;;;;;;14.88;8.65;;;;;;;;;;5050052;28;20143;-88
2020/12/05 13:16:39;;;;;;;14.38;8.38;;;;;;;;;;5053211;28;20016;-86
2020/12/05 13:19:05;;;;;;;15.02;8.57;;;;;;;;;;5054020;28;20021;-80
2020/12/05 13:21:31;;;;;;;15.55;8.60;;;;;;;;;;5052508;28;20028;-87
2020/12/05 13:23:57;;;;;;;14.60;8.93;;;;;;;;;;5052629;28;20029;-82
2020/12/05 13:26:23;;;;;;;13.32;8.23;;;;;;;;;;5053539;28;20021;-85
2020/12/05 13:28:52;;;;;;;19.83;9.60;;;;;;;;;;5054075;28;20025;-86
2020/12/05 13:31:18;;;;;;;57.30;21.58;;;;;;;;;;5054606;28;20365;-83
2020/12/05 13:33:44;;;;;;;24.38;11.35;;;;;;;;;;5053600;28;20029;-80
2020/12/05 13:36:10;;;;;;;16.63;9.90;;;;;;;;;;5052187;28;20098;-85
2020/12/05 13:38:36;;;;;;;18.23;8.98;;;;;;;;;;5053197;28;20079;-74
2020/12/05 13:41:04;;;;;;;16.70;9.52;;;;;;;;;;5053689;28;20096;-87
2020/12/05 13:43:30;;;;;;;16.63;9.93;;;;;;;;;;5054115;28;20017;-79
2020/12/05 13:45:56;;;;;;;25.42;12.80;;;;;;;;;;5054008;28;20037;-76
2020/12/05 13:48:22;;;;;;;24.73;13.05;;;;;;;;;;5054278;28;20100;-79
2020/12/05 13:50:48;;;;;;;25.73;14.15;;;;;;;;;;5054507;28;20094;-92
2020/12/05 13:53:14;;;;;;;28.55;14.82;;;;;;;;;;5055499;28;20064;-92
2020/12/05 13:55:40;;;;;;;25.35;12.65;;;;;;;;;;5055686;28;20025;-93
2020/12/05 13:58:06;;;;;;;23.35;13.60;;;;;;;;;;5053539;28;20031;-82
2020/12/05 14:00:32;;;;;;;21.17;11.13;;;;;;;;;;5052945;28;20128;-85
2020/12/05 14:02:59;;;;;;;19.00;11.50;;;;;;;;;;5053207;28;20029;-86
2020/12/05 14:05:25;;;;;;;23.63;12.85;;;;;;;;;;5046534;28;20091;-80
2020/12/05 14:07:51;;;;;;;25.33;13.93;;;;;;;;;;5033142;28;20492;-87
2020/12/05 14:10:17;;;;;;;25.23;13.75;;;;;;;;;;5033370;28;20511;-89
2020/12/05 14:12:43;;;;;;;22.73;13.10;;;;;;;;;;5033199;28;20038;-87
2020/12/05 14:15:09;;;;;;;24.33;13.73;;;;;;;;;;5033504;28;20045;-88
2020/12/05 14:17:35;;;;;;;18.55;12.15;;;;;;;;;;5033450;28;20041;-80
2020/12/05 14:20:01;;;;;;;23.10;12.80;;;;;;;;;;5033343;28;20031;-85